sensor_id;sensor_type;location;lat;lon;timestamp;pressure;altitude;pressure_sealevel;temperature;humidity
55010;BME280;40903;51.638;7.528;2023-04-09T00:01:16;102026.41;;;6.13;100.00
55010;BME280;40903;51.638;7.528;2023-04-09T00:03:41;102027.09;;;6.08;100.00
55010;BME280;40903;51.638;7.528;2023-04-09T00:06:06;102015.09;;;6.04;100.00
55010;BME280;40903;51.638;7.528;2023-04-09T00:08:32;102016.81;;;5.99;100.00
55010;BME280;40903;51.638;7.528;2023-04-09T00:10:57;102024.34;;;5.97;100.00
55010;BME280;40903;51.638;7.528;2023-04-09T00:13:23;102032.69;;;5.95;100.00
55010;BME280;40903;51.638;7.528;2023-04-09T00:15:48;102029.38;;;5.93;100.00
55010;BME280;40903;51.638;7.528;2023-04-09T00:18:14;102034.41;;;5.90;100.00
55010;BME280;40903;51.638;7.528;2023-04-09T00:20:39;102030.66;;;5.91;100.00
55010;BME280;40903;51.638;7.528;2023-04-09T00:23:05;102034.66;;;5.88;100.00
55010;BME280;40903;51.638;7.528;2023-04-09T00:25:30;102034.06;;;5.86;100.00
55010;BME280;40903;51.638;7.528;2023-04-09T00:27:55;102030.75;;;5.84;100.00
55010;BME280;40903;51.638;7.528;2023-04-09T00:30:20;102031.66;;;5.78;100.00
55010;BME280;40903;51.638;7.528;2023-04-09T00:32:46;102022.66;;;5.78;100.00
55010;BME280;40903;51.638;7.528;2023-04-09T00:35:11;102026.69;;;5.75;100.00
55010;BME280;40903;51.638;7.528;2023-04-09T00:37:36;102024.44;;;5.72;100.00
55010;BME280;40903;51.638;7.528;2023-04-09T00:40:02;102025.09;;;5.68;100.00
55010;BME280;40903;51.638;7.528;2023-04-09T00:42:30;102020.97;;;5.66;100.00
55010;BME280;40903;51.638;7.528;2023-04-09T00:44:56;102024.72;;;5.65;100.00
55010;BME280;40903;51.638;7.528;2023-04-09T00:47:21;102030.13;;;5.65;100.00
55010;BME280;40903;51.638;7.528;2023-04-09T00:49:46;102020.81;;;5.61;100.00
55010;BME280;40903;51.638;7.528;2023-04-09T00:52:11;102019.38;;;5.58;100.00
55010;BME280;40903;51.638;7.528;2023-04-09T00:54:36;102009.63;;;5.57;100.00
55010;BME280;40903;51.638;7.528;2023-04-09T00:57:02;102011.13;;;5.53;100.00
55010;BME280;40903;51.638;7.528;2023-04-09T00:59:27;102020.66;;;5.56;100.00
55010;BME280;40903;51.638;7.528;2023-04-09T01:01:52;102020.28;;;5.52;100.00
55010;BME280;40903;51.638;7.528;2023-04-09T01:04:18;102020.50;;;5.51;100.00
55010;BME280;40903;51.638;7.528;2023-04-09T01:06:54;102018.25;;;5.48;100.00
55010;BME280;40903;51.638;7.528;2023-04-09T01:11:53;102014.56;;;5.42;100.00
55010;BME280;40903;51.638;7.528;2023-04-09T01:17:06;102012.19;;;5.34;100.00
55010;BME280;40903;51.638;7.528;2023-04-09T01:19:40;102015.31;;;5.31;100.00
55010;BME280;40903;51.638;7.528;2023-04-09T01:22:09;102014.72;;;5.29;100.00
55010;BME280;40903;51.638;7.528;2023-04-09T01:27:05;102019.38;;;5.22;100.00
55010;BME280;40903;51.638;7.528;2023-04-09T01:29:32;102019.59;;;5.21;100.00
55010;BME280;40903;51.638;7.528;2023-04-09T01:31:59;102018.16;;;5.18;100.00
55010;BME280;40903;51.638;7.528;2023-04-09T01:34:25;102021.31;;;5.15;100.00
55010;BME280;40903;51.638;7.528;2023-04-09T01:36:52;102017.41;;;5.11;100.00
55010;BME280;40903;51.638;7.528;2023-04-09T01:39:18;102012.44;;;5.08;100.00
55010;BME280;40903;51.638;7.528;2023-04-09T01:41:43;102008.31;;;5.06;100.00
55010;BME280;40903;51.638;7.528;2023-04-09T01:44:09;102012.50;;;5.02;100.00
55010;BME280;40903;51.638;7.528;2023-04-09T01:46:36;102013.75;;;4.99;100.00
55010;BME280;40903;51.638;7.528;2023-04-09T01:49:03;102010.91;;;4.94;100.00
55010;BME280;40903;51.638;7.528;2023-04-09T01:51:28;102013.00;;;4.92;100.00
55010;BME280;40903;51.638;7.528;2023-04-09T01:53:55;102007.00;;;4.90;100.00
55010;BME280;40903;51.638;7.528;2023-04-09T01:56:20;102018.22;;;4.87;100.00
55010;BME280;40903;51.638;7.528;2023-04-09T01:58:46;102016.22;;;4.83;100.00
55010;BME280;40903;51.638;7.528;2023-04-09T02:03:45;102010.88;;;4.76;100.00
55010;BME280;40903;51.638;7.528;2023-04-09T02:06:25;102009.63;;;4.72;100.00
55010;BME280;40903;51.638;7.528;2023-04-09T02:08:52;102011.38;;;4.67;100.00
55010;BME280;40903;51.638;7.528;2023-04-09T02:11:19;102007.44;;;4.63;100.00
55010;BME280;40903;51.638;7.528;2023-04-09T02:13:45;102017.03;;;4.59;100.00
55010;BME280;40903;51.638;7.528;2023-04-09T02:16:13;102008.75;;;4.54;100.00
55010;BME280;40903;51.638;7.528;2023-04-09T02:18:39;102009.41;;;4.49;100.00
55010;BME280;40903;51.638;7.528;2023-04-09T02:21:04;102003.84;;;4.44;100.00
55010;BME280;40903;51.638;7.528;2023-04-09T02:23:30;102011.31;;;4.42;100.00
55010;BME280;40903;51.638;7.528;2023-04-09T02:25:57;102002.84;;;4.39;100.00
55010;BME280;40903;51.638;7.528;2023-04-09T02:28:22;102010.56;;;4.35;100.00
55010;BME280;40903;51.638;7.528;2023-04-09T02:30:47;102006.19;;;4.34;100.00
55010;BME280;40903;51.638;7.528;2023-04-09T02:33:12;102004.75;;;4.32;100.00
55010;BME280;40903;51.638;7.528;2023-04-09T02:35:38;102001.44;;;4.30;100.00
55010;BME280;40903;51.638;7.528;2023-04-09T02:38:03;102002.94;;;4.26;100.00
55010;BME280;40903;51.638;7.528;2023-04-09T02:40:28;101999.03;;;4.22;100.00
55010;BME280;40903;51.638;7.528;2023-04-09T02:42:54;101997.59;;;4.19;100.00
55010;BME280;40903;51.638;7.528;2023-04-09T02:45:19;101991.56;;;4.17;100.00
55010;BME280;40903;51.638;7.528;2023-04-09T02:47:45;101990.13;;;4.15;100.00
55010;BME280;40903;51.638;7.528;2023-04-09T02:50:10;101990.78;;;4.10;100.00
55010;BME280;40903;51.638;7.528;2023-04-09T02:52:35;101991.22;;;4.07;100.00
55010;BME280;40903;51.638;7.528;2023-04-09T02:55:00;101983.75;;;4.03;100.00
55010;BME280;40903;51.638;7.528;2023-04-09T02:57:25;101981.75;;;3.98;100.00
55010;BME280;40903;51.638;7.528;2023-04-09T02:59:51;101982.59;;;3.92;100.00
55010;BME280;40903;51.638;7.528;2023-04-09T03:02:16;101987.38;;;3.90;100.00
55010;BME280;40903;51.638;7.528;2023-04-09T03:04:41;101983.22;;;3.88;100.00
55010;BME280;40903;51.638;7.528;2023-04-09T03:07:06;101983.91;;;3.83;100.00
55010;BME280;40903;51.638;7.528;2023-04-09T03:09:32;101979.94;;;3.79;100.00
55010;BME280;40903;51.638;7.528;2023-04-09T03:11:57;101971.47;;;3.76;100.00
55010;BME280;40903;51.638;7.528;2023-04-09T03:14:23;101979.97;;;3.73;100.00
55010;BME280;40903;51.638;7.528;2023-04-09T03:16:48;101976.06;;;3.69;100.00
55010;BME280;40903;51.638;7.528;2023-04-09T03:19:13;101976.50;;;3.66;100.00
55010;BME280;40903;51.638;7.528;2023-04-09T03:21:38;101971.31;;;3.65;100.00
55010;BME280;40903;51.638;7.528;2023-04-09T03:24:04;101962.84;;;3.61;100.00
55010;BME280;40903;51.638;7.528;2023-04-09T03:26:30;101969.69;;;3.57;100.00
55010;BME280;40903;51.638;7.528;2023-04-09T03:29:00;101969.91;;;3.56;100.00
55010;BME280;40903;51.638;7.528;2023-04-09T03:31:25;101962.47;;;3.51;100.00
55010;BME280;40903;51.638;7.528;2023-04-09T03:33:50;101963.72;;;3.49;100.00
55010;BME280;40903;51.638;7.528;2023-04-09T03:36:16;101963.28;;;3.45;100.00
55010;BME280;40903;51.638;7.528;2023-04-09T03:38:41;101961.88;;;3.43;100.00
55010;BME280;40903;51.638;7.528;2023-04-09T03:41:06;101952.56;;;3.39;100.00
55010;BME280;40903;51.638;7.528;2023-04-09T03:43:31;101968.09;;;3.37;100.00
55010;BME280;40903;51.638;7.528;2023-04-09T03:45:56;101964.19;;;3.33;100.00
55010;BME280;40903;51.638;7.528;2023-04-09T03:48:22;101961.72;;;3.31;100.00
55010;BME280;40903;51.638;7.528;2023-04-09T03:50:47;101962.13;;;3.28;100.00
55010;BME280;40903;51.638;7.528;2023-04-09T03:53:12;101958.00;;;3.26;100.00
55010;BME280;40903;51.638;7.528;2023-04-09T03:55:37;101962.78;;;3.24;100.00
55010;BME280;40903;51.638;7.528;2023-04-09T03:58:02;101958.41;;;3.23;100.00
55010;BME280;40903;51.638;7.528;2023-04-09T04:00:28;101962.78;;;3.24;100.00
55010;BME280;40903;51.638;7.528;2023-04-09T04:02:53;101963.78;;;3.29;100.00
55010;BME280;40903;51.638;7.528;2023-04-09T04:05:18;101957.97;;;3.32;100.00
55010;BME280;40903;51.638;7.528;2023-04-09T04:07:46;101969.56;;;3.33;100.00
55010;BME280;40903;51.638;7.528;2023-04-09T04:10:11;101959.63;;;3.33;100.00
55010;BME280;40903;51.638;7.528;2023-04-09T04:12:36;101964.78;;;3.35;100.00
55010;BME280;40903;51.638;7.528;2023-04-09T04:15:02;101960.69;;;3.32;100.00
55010;BME280;40903;51.638;7.528;2023-04-09T04:17:27;101966.06;;;3.32;100.00
55010;BME280;40903;51.638;7.528;2023-04-09T04:19:52;101966.06;;;3.32;100.00
55010;BME280;40903;51.638;7.528;2023-04-09T04:22:17;101958.19;;;3.31;100.00
55010;BME280;40903;51.638;7.528;2023-04-09T04:24:42;101956.09;;;3.33;100.00
55010;BME280;40903;51.638;7.528;2023-04-09T04:27:08;101965.84;;;3.34;100.00
55010;BME280;40903;51.638;7.528;2023-04-09T04:29:33;101961.28;;;3.34;100.00
55010;BME280;40903;51.638;7.528;2023-04-09T04:31:58;101962.31;;;3.33;100.00
55010;BME280;40903;51.638;7.528;2023-04-09T04:34:23;101962.72;;;3.37;100.00
55010;BME280;40903;51.638;7.528;2023-04-09T04:36:49;101966.44;;;3.36;100.00
55010;BME280;40903;51.638;7.528;2023-04-09T04:39:14;101961.28;;;3.34;100.00
55010;BME280;40903;51.638;7.528;2023-04-09T04:41:39;101969.56;;;3.33;100.00
55010;BME280;40903;51.638;7.528;2023-04-09T04:44:04;101967.31;;;3.30;100.00
55010;BME280;40903;51.638;7.528;2023-04-09T04:46:30;101970.44;;;3.27;100.00
55010;BME280;40903;51.638;7.528;2023-04-09T04:48:55;101960.69;;;3.26;100.00
55010;BME280;40903;51.638;7.528;2023-04-09T04:51:20;101973.13;;;3.27;100.00
55010;BME280;40903;51.638;7.528;2023-04-09T04:53:45;101972.53;;;3.25;100.00
55010;BME280;40903;51.638;7.528;2023-04-09T04:56:11;101972.72;;;3.23;100.00
55010;BME280;40903;51.638;7.528;2023-04-09T04:58:37;101971.88;;;3.23;100.00
55010;BME280;40903;51.638;7.528;2023-04-09T05:01:02;101970.22;;;3.22;100.00
55010;BME280;40903;51.638;7.528;2023-04-09T05:03:27;101969.59;;;3.20;100.00
55010;BME280;40903;51.638;7.528;2023-04-09T05:05:52;101969.59;;;3.20;100.00
55010;BME280;40903;51.638;7.528;2023-04-09T05:08:17;101969.84;;;3.18;100.00
55010;BME280;40903;51.638;7.528;2023-04-09T05:10:42;101972.53;;;3.18;100.00
55010;BME280;40903;51.638;7.528;2023-04-09T05:13:09;101968.56;;;3.21;100.00
55010;BME280;40903;51.638;7.528;2023-04-09T05:15:38;101963.41;;;3.19;100.00
55010;BME280;40903;51.638;7.528;2023-04-09T05:18:04;101965.84;;;3.27;100.00
55010;BME280;40903;51.638;7.528;2023-04-09T05:20:30;101963.56;;;3.31;100.00
55010;BME280;40903;51.638;7.528;2023-04-09T05:22:55;101969.97;;;3.36;100.00
55010;BME280;40903;51.638;7.528;2023-04-09T05:25:21;101969.34;;;3.41;100.00
55010;BME280;40903;51.638;7.528;2023-04-09T05:27:46;101967.03;;;3.44;100.00
55010;BME280;40903;51.638;7.528;2023-04-09T05:30:11;101963.09;;;3.47;100.00
55010;BME280;40903;51.638;7.528;2023-04-09T05:32:37;101973.25;;;3.51;100.00
55010;BME280;40903;51.638;7.528;2023-04-09T05:35:02;101965.56;;;3.55;100.00
55010;BME280;40903;51.638;7.528;2023-04-09T05:37:28;101977.56;;;3.59;100.00
55010;BME280;40903;51.638;7.528;2023-04-09T05:39:53;101976.94;;;3.63;100.00
55010;BME280;40903;51.638;7.528;2023-04-09T05:42:18;101974.63;;;3.67;100.00
55010;BME280;40903;51.638;7.528;2023-04-09T05:44:43;101976.47;;;3.73;100.00
55010;BME280;40903;51.638;7.528;2023-04-09T05:47:08;101974.78;;;3.78;100.00
55010;BME280;40903;51.638;7.528;2023-04-09T05:49:34;101980.16;;;3.84;100.00
55010;BME280;40903;51.638;7.528;2023-04-09T05:51:59;101986.53;;;3.90;100.00
55010;BME280;40903;51.638;7.528;2023-04-09T05:54:24;101985.69;;;3.96;100.00
55010;BME280;40903;51.638;7.528;2023-04-09T05:56:50;101984.81;;;4.02;100.00
55010;BME280;40903;51.638;7.528;2023-04-09T05:59:16;101981.47;;;4.06;100.00
55010;BME280;40903;51.638;7.528;2023-04-09T06:01:42;101989.69;;;4.18;100.00
55010;BME280;40903;51.638;7.528;2023-04-09T06:04:07;101988.44;;;4.20;100.00
55010;BME280;40903;51.638;7.528;2023-04-09T06:06:33;101985.50;;;4.28;100.00
55010;BME280;40903;51.638;7.528;2023-04-09T06:08:58;101992.25;;;4.37;100.00
55010;BME280;40903;51.638;7.528;2023-04-09T06:11:23;101993.88;;;4.45;100.00
55010;BME280;40903;51.638;7.528;2023-04-09T06:13:48;101991.50;;;4.55;100.00
55010;BME280;40903;51.638;7.528;2023-04-09T06:16:13;101984.56;;;4.65;100.00
55010;BME280;40903;51.638;7.528;2023-04-09T06:18:40;101987.38;;;4.77;100.00
55010;BME280;40903;51.638;7.528;2023-04-09T06:21:06;101989.56;;;4.86;100.00
55010;BME280;40903;51.638;7.528;2023-04-09T06:23:32;101990.09;;;4.95;100.00
55010;BME280;40903;51.638;7.528;2023-04-09T06:25:58;102001.47;;;5.03;100.00
55010;BME280;40903;51.638;7.528;2023-04-09T06:28:23;101998.03;;;5.14;100.00
55010;BME280;40903;51.638;7.528;2023-04-09T06:30:48;101989.38;;;5.24;100.00
55010;BME280;40903;51.638;7.528;2023-04-09T06:33:13;101993.84;;;5.36;100.00
55010;BME280;40903;51.638;7.528;2023-04-09T06:35:39;101995.19;;;5.45;100.00
55010;BME280;40903;51.638;7.528;2023-04-09T06:38:04;101990.88;;;5.56;100.00
55010;BME280;40903;51.638;7.528;2023-04-09T06:40:30;101994.88;;;5.71;100.00
55010;BME280;40903;51.638;7.528;2023-04-09T06:42:56;101999.31;;;5.83;100.00
55010;BME280;40903;51.638;7.528;2023-04-09T06:45:21;101997.28;;;5.97;100.00
55010;BME280;40903;51.638;7.528;2023-04-09T06:47:46;102004.16;;;6.11;100.00
55010;BME280;40903;51.638;7.528;2023-04-09T06:50:12;101996.44;;;6.26;100.00
55010;BME280;40903;51.638;7.528;2023-04-09T06:52:37;101993.28;;;6.40;100.00
55010;BME280;40903;51.638;7.528;2023-04-09T06:55:02;102000.53;;;6.58;100.00
55010;BME280;40903;51.638;7.528;2023-04-09T06:57:28;101995.34;;;6.68;100.00
55010;BME280;40903;51.638;7.528;2023-04-09T06:59:53;101999.50;;;6.82;100.00
55010;BME280;40903;51.638;7.528;2023-04-09T07:02:18;101997.25;;;6.90;100.00
55010;BME280;40903;51.638;7.528;2023-04-09T07:04:43;101994.09;;;7.05;100.00
55010;BME280;40903;51.638;7.528;2023-04-09T07:07:08;102004.00;;;7.22;100.00
55010;BME280;40903;51.638;7.528;2023-04-09T07:09:34;101999.38;;;7.34;100.00
55010;BME280;40903;51.638;7.528;2023-04-09T07:11:59;102000.19;;;7.46;100.00
55010;BME280;40903;51.638;7.528;2023-04-09T07:14:25;102001.34;;;7.62;100.00
55010;BME280;40903;51.638;7.528;2023-04-09T07:16:50;101996.94;;;7.72;100.00
55010;BME280;40903;51.638;7.528;2023-04-09T07:19:15;101998.91;;;7.88;100.00
55010;BME280;40903;51.638;7.528;2023-04-09T07:21:40;102001.06;;;8.02;100.00
55010;BME280;40903;51.638;7.528;2023-04-09T07:24:05;102004.94;;;8.18;100.00
55010;BME280;40903;51.638;7.528;2023-04-09T07:26:31;102004.66;;;8.31;100.00
55010;BME280;40903;51.638;7.528;2023-04-09T07:28:56;102009.78;;;8.44;100.00
55010;BME280;40903;51.638;7.528;2023-04-09T07:31:22;102018.03;;;8.49;100.00
55010;BME280;40903;51.638;7.528;2023-04-09T07:33:47;102019.28;;;8.58;100.00
55010;BME280;40903;51.638;7.528;2023-04-09T07:36:12;102018.31;;;8.80;100.00
55010;BME280;40903;51.638;7.528;2023-04-09T07:38:38;102023.00;;;9.01;100.00
55010;BME280;40903;51.638;7.528;2023-04-09T07:41:03;102019.19;;;9.19;99.79
55010;BME280;40903;51.638;7.528;2023-04-09T07:43:29;102021.88;;;9.35;98.43
55010;BME280;40903;51.638;7.528;2023-04-09T07:45:55;102017.53;;;9.56;99.77
55010;BME280;40903;51.638;7.528;2023-04-09T07:48:21;102022.50;;;9.80;99.05
55010;BME280;40903;51.638;7.528;2023-04-09T07:50:46;102012.84;;;9.94;94.44
55010;BME280;40903;51.638;7.528;2023-04-09T07:53:12;102012.31;;;10.13;92.68
55010;BME280;40903;51.638;7.528;2023-04-09T07:55:38;102008.91;;;10.28;91.24
55010;BME280;40903;51.638;7.528;2023-04-09T07:58:03;102007.72;;;10.45;90.68
55010;BME280;40903;51.638;7.528;2023-04-09T08:00:29;102010.91;;;10.64;89.54
55010;BME280;40903;51.638;7.528;2023-04-09T08:02:55;102014.91;;;10.83;87.87
55010;BME280;40903;51.638;7.528;2023-04-09T08:05:21;102003.31;;;11.02;87.12
55010;BME280;40903;51.638;7.528;2023-04-09T08:07:46;102002.91;;;11.20;85.42
55010;BME280;40903;51.638;7.528;2023-04-09T08:10:11;102004.06;;;11.34;83.01
55010;BME280;40903;51.638;7.528;2023-04-09T08:12:39;102005.28;;;11.53;82.34
55010;BME280;40903;51.638;7.528;2023-04-09T08:15:04;102002.41;;;11.70;79.36
55010;BME280;40903;51.638;7.528;2023-04-09T08:17:29;102001.91;;;11.82;79.44
55010;BME280;40903;51.638;7.528;2023-04-09T08:19:55;102006.88;;;12.00;78.65
55010;BME280;40903;51.638;7.528;2023-04-09T08:22:20;101996.25;;;12.09;77.50
55010;BME280;40903;51.638;7.528;2023-04-09T08:24:49;102003.16;;;12.26;77.39
55010;BME280;40903;51.638;7.528;2023-04-09T08:27:14;102008.09;;;12.39;77.31
55010;BME280;40903;51.638;7.528;2023-04-09T08:29:40;102000.16;;;12.58;75.52
55010;BME280;40903;51.638;7.528;2023-04-09T08:32:06;102004.28;;;12.75;73.86
55010;BME280;40903;51.638;7.528;2023-04-09T08:34:32;102006.75;;;12.82;74.31
55010;BME280;40903;51.638;7.528;2023-04-09T08:36:57;102007.59;;;12.97;74.19
55010;BME280;40903;51.638;7.528;2023-04-09T08:39:22;102008.41;;;13.13;72.04
55010;BME280;40903;51.638;7.528;2023-04-09T08:41:47;102014.16;;;13.21;70.47
55010;BME280;40903;51.638;7.528;2023-04-09T08:44:13;102009.19;;;13.28;67.70
55010;BME280;40903;51.638;7.528;2023-04-09T08:46:39;102009.41;;;13.52;69.68
55010;BME280;40903;51.638;7.528;2023-04-09T08:49:04;102004.16;;;13.75;72.59
55010;BME280;40903;51.638;7.528;2023-04-09T08:51:29;102005.19;;;13.89;68.46
55010;BME280;40903;51.638;7.528;2023-04-09T08:53:56;102008.41;;;14.06;66.48
55010;BME280;40903;51.638;7.528;2023-04-09T08:56:22;102008.91;;;14.18;64.53
55010;BME280;40903;51.638;7.528;2023-04-09T08:58:47;102001.19;;;14.25;61.33
55010;BME280;40903;51.638;7.528;2023-04-09T09:01:19;101991.75;;;14.41;63.91
55010;BME280;40903;51.638;7.528;2023-04-09T09:06:40;102004.22;;;14.62;61.03
55010;BME280;40903;51.638;7.528;2023-04-09T09:09:14;102000.84;;;14.75;59.56
55010;BME280;40903;51.638;7.528;2023-04-09T09:14:07;101996.53;;;14.97;56.55
55010;BME280;40903;51.638;7.528;2023-04-09T09:16:37;102011.50;;;15.15;54.34
55010;BME280;40903;51.638;7.528;2023-04-09T09:19:07;102015.44;;;15.04;49.97
55010;BME280;40903;51.638;7.528;2023-04-09T09:21:33;102016.50;;;15.08;52.00
55010;BME280;40903;51.638;7.528;2023-04-09T09:24:00;101999.66;;;15.14;53.02
55010;BME280;40903;51.638;7.528;2023-04-09T09:26:26;101994.22;;;15.38;58.15
55010;BME280;40903;51.638;7.528;2023-04-09T09:28:53;102006.78;;;15.49;55.25
55010;BME280;40903;51.638;7.528;2023-04-09T09:31:19;102000.63;;;15.33;53.53
55010;BME280;40903;51.638;7.528;2023-04-09T09:33:44;102005.34;;;15.23;52.92
55010;BME280;40903;51.638;7.528;2023-04-09T09:36:10;102005.81;;;15.01;53.15
55010;BME280;40903;51.638;7.528;2023-04-09T09:38:51;101995.44;;;14.65;52.57
55010;BME280;40903;51.638;7.528;2023-04-09T09:41:18;101997.09;;;14.61;54.06
55010;BME280;40903;51.638;7.528;2023-04-09T09:43:43;102002.91;;;14.59;49.22
55010;BME280;40903;51.638;7.528;2023-04-09T09:46:09;102006.50;;;14.55;47.50
55010;BME280;40903;51.638;7.528;2023-04-09T09:48:35;101999.91;;;14.56;49.64
55010;BME280;40903;51.638;7.528;2023-04-09T09:51:00;101984.75;;;14.63;50.90
55010;BME280;40903;51.638;7.528;2023-04-09T09:53:27;101983.56;;;14.74;50.50
55010;BME280;40903;51.638;7.528;2023-04-09T09:55:54;101983.19;;;15.14;51.78
55010;BME280;40903;51.638;7.528;2023-04-09T09:58:21;101983.88;;;15.30;49.80
55010;BME280;40903;51.638;7.528;2023-04-09T10:00:48;101984.97;;;15.29;47.52
55010;BME280;40903;51.638;7.528;2023-04-09T10:03:24;101981.06;;;15.06;48.23
55010;BME280;40903;51.638;7.528;2023-04-09T10:05:51;101978.28;;;14.78;52.73
55010;BME280;40903;51.638;7.528;2023-04-09T10:08:17;101980.88;;;14.64;50.05
55010;BME280;40903;51.638;7.528;2023-04-09T10:10:43;101971.53;;;14.65;50.31
55010;BME280;40903;51.638;7.528;2023-04-09T10:13:10;101978.78;;;14.51;50.92
55010;BME280;40903;51.638;7.528;2023-04-09T10:15:37;101983.22;;;14.47;50.02
55010;BME280;40903;51.638;7.528;2023-04-09T10:18:03;101969.06;;;14.64;52.14
55010;BME280;40903;51.638;7.528;2023-04-09T10:20:33;101967.75;;;14.61;52.35
55010;BME280;40903;51.638;7.528;2023-04-09T10:23:01;101962.56;;;14.55;52.67
55010;BME280;40903;51.638;7.528;2023-04-09T10:25:27;101958.41;;;14.62;52.58
55010;BME280;40903;51.638;7.528;2023-04-09T10:28:01;101952.56;;;14.69;53.99
55010;BME280;40903;51.638;7.528;2023-04-09T10:30:36;101959.13;;;14.73;51.10
55010;BME280;40903;51.638;7.528;2023-04-09T10:33:08;101942.03;;;14.81;54.18
55010;BME280;40903;51.638;7.528;2023-04-09T10:35:33;101945.53;;;14.86;52.16
55010;BME280;40903;51.638;7.528;2023-04-09T10:37:59;101950.19;;;15.14;48.58
55010;BME280;40903;51.638;7.528;2023-04-09T10:40:24;101950.72;;;15.16;49.04
55010;BME280;40903;51.638;7.528;2023-04-09T10:42:51;101947.78;;;15.13;49.13
55010;BME280;40903;51.638;7.528;2023-04-09T10:45:18;101940.72;;;15.02;48.66
55010;BME280;40903;51.638;7.528;2023-04-09T10:47:47;101942.50;;;15.16;49.49
55010;BME280;40903;51.638;7.528;2023-04-09T10:52:39;101941.44;;;15.64;49.16
55010;BME280;40903;51.638;7.528;2023-04-09T10:55:05;101947.91;;;15.73;45.81
55010;BME280;40903;51.638;7.528;2023-04-09T10:57:31;101943.81;;;15.71;47.02
55010;BME280;40903;51.638;7.528;2023-04-09T10:59:56;101948.91;;;15.59;44.91
55010;BME280;40903;51.638;7.528;2023-04-09T11:07:43;101939.38;;;16.11;45.00
55010;BME280;40903;51.638;7.528;2023-04-09T11:10:09;101935.28;;;16.64;46.20
55010;BME280;40903;51.638;7.528;2023-04-09T11:12:34;101945.41;;;17.14;44.86
55010;BME280;40903;51.638;7.528;2023-04-09T11:14:59;101942.34;;;17.16;42.04
55010;BME280;40903;51.638;7.528;2023-04-09T11:17:25;101951.34;;;16.76;39.48
55010;BME280;40903;51.638;7.528;2023-04-09T11:19:50;101943.19;;;16.34;40.72
55010;BME280;40903;51.638;7.528;2023-04-09T11:22:15;101938.44;;;16.58;43.19
55010;BME280;40903;51.638;7.528;2023-04-09T11:24:44;101932.03;;;16.62;42.93
55010;BME280;40903;51.638;7.528;2023-04-09T11:27:10;101945.19;;;16.65;42.48
55010;BME280;40903;51.638;7.528;2023-04-09T11:29:36;101936.22;;;16.41;41.60
55010;BME280;40903;51.638;7.528;2023-04-09T11:32:01;101936.41;;;16.26;41.72
55010;BME280;40903;51.638;7.528;2023-04-09T11:34:27;101929.50;;;16.10;43.31
55010;BME280;40903;51.638;7.528;2023-04-09T11:36:52;101927.47;;;15.97;43.83
55010;BME280;40903;51.638;7.528;2023-04-09T11:39:17;101929.44;;;15.97;43.00
55010;BME280;40903;51.638;7.528;2023-04-09T11:41:42;101920.41;;;15.91;45.82
55010;BME280;40903;51.638;7.528;2023-04-09T11:44:07;101912.91;;;15.97;45.71
55010;BME280;40903;51.638;7.528;2023-04-09T11:46:33;101910.75;;;16.31;44.62
55010;BME280;40903;51.638;7.528;2023-04-09T11:48:59;101911.88;;;16.80;45.91
55010;BME280;40903;51.638;7.528;2023-04-09T11:51:25;101918.97;;;17.00;43.74
55010;BME280;40903;51.638;7.528;2023-04-09T11:53:51;101928.47;;;17.21;44.13
55010;BME280;40903;51.638;7.528;2023-04-09T11:56:16;101936.56;;;17.31;40.91
55010;BME280;40903;51.638;7.528;2023-04-09T11:58:45;101932.31;;;17.38;41.14
55010;BME280;40903;51.638;7.528;2023-04-09T12:01:13;101920.34;;;17.56;40.54
55010;BME280;40903;51.638;7.528;2023-04-09T12:03:38;101921.94;;;17.84;40.73
55010;BME280;40903;51.638;7.528;2023-04-09T12:06:04;101918.94;;;17.94;39.93
55010;BME280;40903;51.638;7.528;2023-04-09T12:08:30;101923.41;;;17.68;40.21
55010;BME280;40903;51.638;7.528;2023-04-09T12:10:55;101915.03;;;17.60;40.70
55010;BME280;40903;51.638;7.528;2023-04-09T12:13:23;101919.63;;;17.37;41.13
55010;BME280;40903;51.638;7.528;2023-04-09T12:15:56;101907.34;;;17.30;44.61
55010;BME280;40903;51.638;7.528;2023-04-09T12:18:22;101913.66;;;17.30;42.39
55010;BME280;40903;51.638;7.528;2023-04-09T12:20:47;101912.25;;;17.46;41.58
55010;BME280;40903;51.638;7.528;2023-04-09T12:23:14;101903.88;;;17.65;40.83
55010;BME280;40903;51.638;7.528;2023-04-09T12:25:40;101910.94;;;17.57;40.13
55010;BME280;40903;51.638;7.528;2023-04-09T12:28:07;101918.41;;;17.43;40.70
55010;BME280;40903;51.638;7.528;2023-04-09T12:30:32;101905.13;;;17.59;41.27
55010;BME280;40903;51.638;7.528;2023-04-09T12:32:58;101904.84;;;17.95;41.68
55010;BME280;40903;51.638;7.528;2023-04-09T12:35:24;101903.56;;;18.15;39.94
55010;BME280;40903;51.638;7.528;2023-04-09T12:37:49;101922.66;;;17.76;38.14
55010;BME280;40903;51.638;7.528;2023-04-09T12:40:15;101910.22;;;17.65;39.56
55010;BME280;40903;51.638;7.528;2023-04-09T12:42:41;101916.31;;;17.89;41.73
55010;BME280;40903;51.638;7.528;2023-04-09T12:45:07;101909.38;;;17.91;38.16
55010;BME280;40903;51.638;7.528;2023-04-09T12:47:33;101908.81;;;18.03;40.22
55010;BME280;40903;51.638;7.528;2023-04-09T12:49:58;101904.56;;;17.83;39.33
55010;BME280;40903;51.638;7.528;2023-04-09T12:52:23;101904.19;;;17.63;40.20
55010;BME280;40903;51.638;7.528;2023-04-09T12:54:48;101904.38;;;17.26;39.75
55010;BME280;40903;51.638;7.528;2023-04-09T12:57:14;101904.88;;;17.28;40.98
55010;BME280;40903;51.638;7.528;2023-04-09T12:59:39;101896.03;;;17.45;39.83
55010;BME280;40903;51.638;7.528;2023-04-09T13:02:04;101893.88;;;17.55;40.54
55010;BME280;40903;51.638;7.528;2023-04-09T13:04:30;101891.25;;;17.85;41.66
55010;BME280;40903;51.638;7.528;2023-04-09T13:06:55;101892.53;;;18.01;39.86